Wetterdaten: Woche 08.04.13 - 14.04.13 (KW15)
Datum Zeit Temp. A. Feuchte A. Luftdruck Regen Wind Richtung Taupunkt Windchill Windben
08.04.2013 00:00 -2,5 C 88 % 1016,3 hPa 0,0 l/m 0,3 km/h (0 Bft) N-NW -4,2 C -2,5 C 1,1 km/h (0 Bft)
08.04.2013 01:00 -3,4 C 90 % 1015,9 hPa 0,0 l/m 0,0 km/h (0 Bft) N -4,8 C -3,4 C 0,0 km/h (0 Bft)
08.04.2013 02:00 -3,7 C 92 % 1015,4 hPa 0,0 l/m 0,0 km/h (0 Bft) N -4,7 C -3,7 C 0,1 km/h (0 Bft)
08.04.2013 03:00 -3,5 C 93 % 1014,8 hPa 0,0 l/m 0,0 km/h (0 Bft) N -4,5 C -3,5 C 0,0 km/h (0 Bft)
08.04.2013 04:00 -3,4 C 93 % 1014,2 hPa 0,0 l/m 0,1 km/h (0 Bft) N -4,4 C -3,4 C 0,7 km/h (0 Bft)
08.04.2013 05:00 -3,3 C 92 % 1013,6 hPa 0,0 l/m 0,9 km/h (0 Bft) N-NO -4,4 C -3,3 C 1,9 km/h (1 Bft)
08.04.2013 06:00 -3,2 C 92 % 1013,3 hPa 0,0 l/m 2,5 km/h (1 Bft) N -4,3 C -3,2 C 3,7 km/h (1 Bft)
08.04.2013 07:00 -2,1 C 91 % 1013,0 hPa 0,0 l/m 2,4 km/h (1 Bft) NO -3,3 C -2,1 C 3,9 km/h (1 Bft)
08.04.2013 08:00 -0,5 C 90 % 1012,9 hPa 0,0 l/m 4,9 km/h (1 Bft) NO -1,9 C -0,6 C 7,6 km/h (2 Bft)
08.04.2013 09:00 1,9 C 87 % 1012,9 hPa 0,0 l/m 7,4 km/h (2 Bft) O-NO -0,1 C 0,9 C 12,0 km/h (2 Bft)
08.04.2013 10:00 3,8 C 77 % 1012,7 hPa 0,0 l/m 8,2 km/h (2 Bft) O-NO 0,2 C 2,2 C 14,5 km/h (3 Bft)
08.04.2013 11:00 5,6 C 69 % 1012,6 hPa 0,0 l/m 6,3 km/h (2 Bft) O-NO 0,3 C 5,2 C 12,4 km/h (2 Bft)
08.04.2013 12:00 7,1 C 61 % 1012,0 hPa 0,0 l/m 4,9 km/h (1 Bft) O-NO 0,1 C 7,1 C 9,7 km/h (2 Bft)
08.04.2013 13:00 7,8 C 57 % 1011,2 hPa 0,0 l/m 6,1 km/h (2 Bft) O-NO -0,3 C 7,4 C 12,9 km/h (3 Bft)
08.04.2013 14:00 8,1 C 56 % 1010,4 hPa 0,0 l/m 9,5 km/h (2 Bft) O -0,1 C 5,8 C 16,9 km/h (3 Bft)
08.04.2013 15:00 8,4 C 52 % 1009,6 hPa 0,0 l/m 9,9 km/h (2 Bft) O -0,9 C 6,0 C 16,9 km/h (3 Bft)
08.04.2013 16:00 8,4 C 50 % 1009,0 hPa 0,0 l/m 10,8 km/h (2 Bft) O-NO -1,5 C 5,3 C 19,2 km/h (3 Bft)
08.04.2013 17:00 8,4 C 49 % 1008,4 hPa 0,0 l/m 11,0 km/h (2 Bft) O-NO -1,7 C 5,2 C 18,9 km/h (3 Bft)
08.04.2013 18:00 7,8 C 53 % 1008,0 hPa 0,0 l/m 11,2 km/h (2 Bft) O -1,1 C 4,5 C 20,9 km/h (4 Bft)
08.04.2013 19:00 6,7 C 60 % 1008,0 hPa 0,0 l/m 9,2 km/h (2 Bft) O-NO -0,5 C 4,6 C 16,9 km/h (3 Bft)
08.04.2013 20:00 5,8 C 66 % 1008,3 hPa 0,0 l/m 8,7 km/h (2 Bft) O -0,1 C 3,9 C 16,6 km/h (3 Bft)
08.04.2013 21:00 5,0 C 70 % 1008,5 hPa 0,0 l/m 8,0 km/h (2 Bft) O-NO 0,1 C 3,7 C 15,2 km/h (3 Bft)
08.04.2013 22:00 4,2 C 74 % 1008,3 hPa 0,0 l/m 8,9 km/h (2 Bft) O -0,0 C 2,0 C 16,0 km/h (3 Bft)
08.04.2013 23:00 3,4 C 77 % 1008,1 hPa 0,0 l/m 8,1 km/h (2 Bft) O-NO -0,2 C 1,8 C 15,0 km/h (3 Bft)
09.04.2013 00:00 2,8 C 80 % 1007,8 hPa 0,0 l/m 8,4 km/h (2 Bft) O-NO -0,4 C 1,0 C 16,4 km/h (3 Bft)
09.04.2013 01:00 2,6 C 80 % 1007,5 hPa 0,0 l/m 8,7 km/h (2 Bft) O-NO -0,5 C 0,5 C 16,8 km/h (3 Bft)
09.04.2013 02:00 2,3 C 81 % 1007,1 hPa 0,0 l/m 7,0 km/h (2 Bft) O-NO -0,6 C 1,6 C 12,9 km/h (3 Bft)
09.04.2013 03:00 2,1 C 81 % 1006,5 hPa 0,0 l/m 5,8 km/h (2 Bft) O-NO -0,8 C 2,1 C 11,3 km/h (2 Bft)
09.04.2013 04:00 2,2 C 81 % 1006,3 hPa 0,0 l/m 4,9 km/h (1 Bft) O-NO -0,7 C 2,2 C 9,5 km/h (2 Bft)
09.04.2013 05:00 1,7 C 82 % 1006,1 hPa 0,0 l/m 5,2 km/h (1 Bft) O-NO -1,0 C 1,7 C 9,3 km/h (2 Bft)
09.04.2013 06:00 1,1 C 84 % 1005,8 hPa 0,0 l/m 5,5 km/h (2 Bft) O-NO -1,3 C 1,1 C 10,5 km/h (2 Bft)
09.04.2013 07:00 0,8 C 85 % 1005,9 hPa 0,0 l/m 4,3 km/h (1 Bft) O-NO -1,3 C 0,8 C 8,4 km/h (2 Bft)
09.04.2013 08:00 2,0 C 83 % 1006,1 hPa 0,0 l/m 8,0 km/h (2 Bft) O -0,7 C 0,6 C 14,6 km/h (3 Bft)
09.04.2013 09:00 3,2 C 79 % 1006,2 hPa 0,0 l/m 10,6 km/h (2 Bft) O -0,1 C -0,4 C 19,0 km/h (3 Bft)
09.04.2013 10:00 4,3 C 75 % 1006,2 hPa 0,0 l/m 8,4 km/h (2 Bft) O-SO 0,3 C 2,6 C 17,2 km/h (3 Bft)
09.04.2013 11:00 5,4 C 72 % 1006,0 hPa 0,0 l/m 7,9 km/h (2 Bft) SO 0,8 C 4,1 C 16,8 km/h (3 Bft)
09.04.2013 12:00 5,3 C 76 % 1005,6 hPa 0,0 l/m 7,5 km/h (2 Bft) O-SO 1,5 C 4,3 C 14,8 km/h (3 Bft)
09.04.2013 13:00 5,9 C 78 % 1005,1 hPa 0,0 l/m 8,6 km/h (2 Bft) SO 2,4 C 4,1 C 16,8 km/h (3 Bft)
09.04.2013 14:00 6,3 C 78 % 1004,7 hPa 0,0 l/m 9,7 km/h (2 Bft) SO 2,8 C 3,8 C 18,9 km/h (3 Bft)
09.04.2013 15:00 6,8 C 76 % 1004,4 hPa 0,0 l/m 9,6 km/h (2 Bft) O-SO 2,9 C 4,4 C 17,7 km/h (3 Bft)
09.04.2013 16:00 7,1 C 76 % 1004,3 hPa 0,0 l/m 8,7 km/h (2 Bft) O-SO 3,2 C 5,3 C 14,9 km/h (3 Bft)
09.04.2013 17:00 7,6 C 75 % 1004,0 hPa 0,0 l/m 8,7 km/h (2 Bft) O-SO 3,4 C 5,9 C 15,6 km/h (3 Bft)
09.04.2013 18:00 7,2 C 76 % 1004,0 hPa 0,0 l/m 9,9 km/h (2 Bft) O 3,2 C 4,6 C 16,9 km/h (3 Bft)
09.04.2013 19:00 6,5 C 78 % 1004,0 hPa 0,0 l/m 6,1 km/h (2 Bft) O-NO 3,0 C 6,2 C 11,4 km/h (2 Bft)
09.04.2013 20:00 5,5 C 82 % 1004,2 hPa 0,0 l/m 5,8 km/h (2 Bft) O-NO 2,7 C 5,5 C 10,6 km/h (2 Bft)
09.04.2013 21:00 5,0 C 84 % 1004,3 hPa 0,0 l/m 6,0 km/h (2 Bft) O-NO 2,5 C 4,9 C 10,9 km/h (2 Bft)
09.04.2013 22:00 5,0 C 83 % 1004,2 hPa 0,0 l/m 7,2 km/h (2 Bft) O-NO 2,3 C 4,2 C 14,5 km/h (3 Bft)
09.04.2013 23:00 4,6 C 83 % 1004,1 hPa 0,0 l/m 9,0 km/h (2 Bft) O 2,0 C 2,4 C 16,1 km/h (3 Bft)
10.04.2013 00:00 4,2 C 84 % 1004,3 hPa 0,0 l/m 6,8 km/h (2 Bft) O 1,7 C 3,7 C 12,9 km/h (3 Bft)
10.04.2013 01:00 3,9 C 85 % 1004,1 hPa 0,0 l/m 6,4 km/h (2 Bft) O-NO 1,6 C 3,3 C 12,8 km/h (3 Bft)
10.04.2013 02:00 3,4 C 87 % 1003,7 hPa 0,0 l/m 4,8 km/h (1 Bft) O-NO 1,5 C 3,4 C 9,4 km/h (2 Bft)
10.04.2013 03:00 3,1 C 89 % 1003,6 hPa 0,0 l/m 4,2 km/h (1 Bft) O-NO 1,4 C 3,1 C 7,6 km/h (2 Bft)
10.04.2013 04:00 3,1 C 89 % 1003,9 hPa 0,0 l/m 4,1 km/h (1 Bft) O 1,5 C 3,1 C 7,5 km/h (2 Bft)
10.04.2013 05:00 3,1 C 90 % 1003,9 hPa 0,0 l/m 5,6 km/h (2 Bft) O 1,6 C 3,0 C 10,1 km/h (2 Bft)
10.04.2013 06:00 2,9 C 90 % 1004,0 hPa 0,0 l/m 5,7 km/h (2 Bft) O 1,5 C 2,8 C 10,2 km/h (2 Bft)
10.04.2013 07:00 3,1 C 91 % 1004,3 hPa 0,0 l/m 4,9 km/h (1 Bft) O 1,7 C 3,0 C 9,8 km/h (2 Bft)
10.04.2013 08:00 3,6 C 91 % 1004,6 hPa 0,0 l/m 4,0 km/h (1 Bft) O-SO 2,2 C 3,6 C 9,0 km/h (2 Bft)
10.04.2013 09:00 4,5 C 89 % 1004,7 hPa 0,0 l/m 6,3 km/h (2 Bft) O-SO 2,9 C 4,1 C 12,2 km/h (2 Bft)
10.04.2013 10:00 5,6 C 86 % 1005,0 hPa 0,0 l/m 5,2 km/h (1 Bft) O-SO 3,5 C 5,6 C 10,4 km/h (2 Bft)
10.04.2013 11:00 7,3 C 82 % 1005,1 hPa 0,0 l/m 5,8 km/h (2 Bft) O 4,4 C 7,2 C 11,3 km/h (2 Bft)
10.04.2013 12:00 8,5 C 78 % 1005,0 hPa 0,0 l/m 4,7 km/h (1 Bft) O 5,0 C 8,5 C 9,4 km/h (2 Bft)
10.04.2013 13:00 9,2 C 77 % 1005,1 hPa 0,0 l/m 4,6 km/h (1 Bft) O-SO 5,4 C 9,2 C 10,5 km/h (2 Bft)
10.04.2013 14:00 9,2 C 80 % 1005,4 hPa 0,0 l/m 3,9 km/h (1 Bft) SO 5,9 C 9,2 C 8,4 km/h (2 Bft)
10.04.2013 15:00 9,5 C 81 % 1005,3 hPa 0,0 l/m 3,2 km/h (1 Bft) S-SW 6,4 C 9,5 C 7,9 km/h (2 Bft)
10.04.2013 16:00 10,3 C 79 % 1005,2 hPa 0,0 l/m 2,2 km/h (1 Bft) S-SO 6,7 C 10,3 C 5,3 km/h (1 Bft)
10.04.2013 17:00 11,0 C 74 % 1005,3 hPa 0,0 l/m 2,2 km/h (1 Bft) O-SO 6,6 C 11,0 C 5,3 km/h (1 Bft)
10.04.2013 18:00 9,9 C 81 % 1005,6 hPa 2,8 l/m 1,8 km/h (1 Bft) S-SW 6,8 C 9,9 C 5,0 km/h (1 Bft)
10.04.2013 19:00 7,9 C 90 % 1005,8 hPa 1,6 l/m 1,3 km/h (1 Bft) O 6,4 C 7,9 C 3,3 km/h (1 Bft)
10.04.2013 20:00 7,5 C 93 % 1006,2 hPa 0,2 l/m 0,2 km/h (0 Bft) N 6,5 C 7,5 C 1,1 km/h (0 Bft)
10.04.2013 21:00 7,2 C 94 % 1006,7 hPa 1,0 l/m 0,9 km/h (0 Bft) S-SO 6,3 C 7,2 C 3,1 km/h (1 Bft)
10.04.2013 22:00 6,9 C 95 % 1006,9 hPa 0,0 l/m 0,0 km/h (0 Bft) N 6,2 C 6,9 C 0,1 km/h (0 Bft)
10.04.2013 23:00 6,6 C 95 % 1007,1 hPa 0,2 l/m 0,0 km/h (0 Bft) N 6,0 C 6,6 C 0,0 km/h (0 Bft)
11.04.2013 00:00 6,5 C 96 % 1007,1 hPa 0,0 l/m 0,0 km/h (0 Bft) N 5,9 C 6,5 C 0,0 km/h (0 Bft)
11.04.2013 01:00 6,2 C 96 % 1006,9 hPa 0,0 l/m 0,0 km/h (0 Bft) N 5,6 C 6,2 C 0,0 km/h (0 Bft)
11.04.2013 02:00 5,0 C 96 % 1006,4 hPa 0,0 l/m 0,0 km/h (0 Bft) N 4,5 C 5,0 C 0,0 km/h (0 Bft)
11.04.2013 03:00 3,8 C 96 % 1006,0 hPa 0,0 l/m 0,0 km/h (0 Bft) N 3,3 C 3,8 C 0,0 km/h (0 Bft)
11.04.2013 04:00 3,3 C 96 % 1005,5 hPa 0,2 l/m 0,0 km/h (0 Bft) N 2,8 C 3,3 C 0,0 km/h (0 Bft)
11.04.2013 05:00 3,4 C 97 % 1004,7 hPa 0,0 l/m 0,0 km/h (0 Bft) N 2,9 C 3,4 C 0,0 km/h (0 Bft)
11.04.2013 06:00 3,8 C 97 % 1003,8 hPa 0,0 l/m 0,0 km/h (0 Bft) N 3,4 C 3,8 C 0,0 km/h (0 Bft)
11.04.2013 07:00 4,7 C 97 % 1003,2 hPa 0,2 l/m 1,6 km/h (1 Bft) O-SO 4,2 C 4,7 C 4,4 km/h (1 Bft)
11.04.2013 08:00 5,4 C 97 % 1002,7 hPa 2,2 l/m 3,7 km/h (1 Bft) SO 4,9 C 5,4 C 8,7 km/h (2 Bft)
11.04.2013 09:00 5,8 C 96 % 1001,7 hPa 2,0 l/m 5,6 km/h (2 Bft) O-SO 5,2 C 5,6 C 12,0 km/h (2 Bft)
11.04.2013 10:00 6,4 C 95 % 1000,6 hPa 0,8 l/m 7,0 km/h (2 Bft) SO 5,7 C 5,7 C 14,8 km/h (3 Bft)
11.04.2013 11:00 6,8 C 96 % 999,8 hPa 1,4 l/m 5,9 km/h (2 Bft) SO 6,2 C 6,6 C 14,5 km/h (3 Bft)
11.04.2013 12:00 7,3 C 97 % 999,3 hPa 0,6 l/m 5,2 km/h (1 Bft) S-SO 6,8 C 7,3 C 10,9 km/h (2 Bft)
11.04.2013 13:00 8,3 C 97 % 998,9 hPa 0,2 l/m 3,4 km/h (1 Bft) S 7,9 C 8,3 C 9,4 km/h (2 Bft)
11.04.2013 14:00 9,9 C 97 % 998,8 hPa 0,2 l/m 4,3 km/h (1 Bft) S 9,5 C 9,9 C 10,1 km/h (2 Bft)
11.04.2013 15:00 11,7 C 96 % 998,6 hPa 0,2 l/m 5,0 km/h (1 Bft) SW 11,1 C 11,5 C 11,4 km/h (2 Bft)
11.04.2013 16:00 10,6 C 96 % 998,9 hPa 2,0 l/m 2,5 km/h (1 Bft) W-SW 9,9 C 10,5 C 8,7 km/h (2 Bft)
11.04.2013 17:00 10,9 C 97 % 998,9 hPa 0,0 l/m 1,2 km/h (1 Bft) SW 10,5 C 10,9 C 5,2 km/h (1 Bft)
11.04.2013 18:00 11,2 C 97 % 998,8 hPa 0,0 l/m 1,2 km/h (1 Bft) W 10,7 C 11,2 C 4,7 km/h (1 Bft)
11.04.2013 19:00 10,3 C 97 % 999,1 hPa 0,0 l/m 1,0 km/h (0 Bft) SW 9,9 C 10,3 C 4,5 km/h (1 Bft)
11.04.2013 20:00 9,7 C 97 % 999,4 hPa 0,0 l/m 0,5 km/h (0 Bft) SW 9,3 C 9,7 C 2,5 km/h (1 Bft)
11.04.2013 21:00 8,7 C 97 % 999,5 hPa 0,0 l/m 0,0 km/h (0 Bft) N 8,3 C 8,7 C 0,0 km/h (0 Bft)
11.04.2013 22:00 8,1 C 97 % 999,4 hPa 0,0 l/m 0,0 km/h (0 Bft) N 7,6 C 8,1 C 0,0 km/h (0 Bft)
11.04.2013 23:00 7,4 C 97 % 999,1 hPa 0,0 l/m 0,0 km/h (0 Bft) N 6,9 C 7,4 C 0,0 km/h (0 Bft)
12.04.2013 00:00 7,0 C 98 % 998,8 hPa 0,0 l/m 0,0 km/h (0 Bft) N 6,6 C 7,0 C 0,0 km/h (0 Bft)
12.04.2013 01:00 6,5 C 98 % 998,6 hPa 0,2 l/m 0,0 km/h (0 Bft) N 6,2 C 6,5 C 0,0 km/h (0 Bft)
12.04.2013 02:00 6,5 C 98 % 998,4 hPa 0,0 l/m 0,0 km/h (0 Bft) N 6,2 C 6,5 C 0,0 km/h (0 Bft)
12.04.2013 03:00 6,9 C 98 % 998,0 hPa 0,0 l/m 0,0 km/h (0 Bft) N 6,6 C 6,9 C 0,0 km/h (0 Bft)
12.04.2013 04:00 7,5 C 98 % 997,9 hPa 0,0 l/m 0,0 km/h (0 Bft) N 7,3 C 7,5 C 0,0 km/h (0 Bft)
12.04.2013 05:00 7,4 C 98 % 998,1 hPa 0,0 l/m 0,0 km/h (0 Bft) N 7,1 C 7,4 C 0,0 km/h (0 Bft)
12.04.2013 06:00 7,3 C 98 % 998,5 hPa 0,0 l/m 0,3 km/h (0 Bft) SW 7,0 C 7,3 C 0,8 km/h (0 Bft)
12.04.2013 07:00 7,4 C 98 % 998,9 hPa 0,0 l/m 1,6 km/h (1 Bft) W 7,1 C 7,4 C 5,9 km/h (2 Bft)
12.04.2013 08:00 6,6 C 98 % 999,3 hPa 0,0 l/m 4,7 km/h (1 Bft) W-NW 6,3 C 6,6 C 12,9 km/h (3 Bft)
12.04.2013 09:00 6,3 C 97 % 1000,0 hPa 0,0 l/m 4,6 km/h (1 Bft) SW 5,9 C 6,3 C 13,8 km/h (3 Bft)
12.04.2013 10:00 6,9 C 97 % 1000,9 hPa 0,0 l/m 5,7 km/h (2 Bft) NW 6,4 C 6,8 C 14,0 km/h (3 Bft)
12.04.2013 11:00 8,6 C 89 % 1001,8 hPa 0,0 l/m 6,6 km/h (2 Bft) W 6,9 C 8,2 C 16,5 km/h (3 Bft)
12.04.2013 12:00 10,8 C 78 % 1002,1 hPa 0,0 l/m 6,7 km/h (2 Bft) SW 7,2 C 10,4 C 15,6 km/h (3 Bft)
12.04.2013 13:00 11,7 C 72 % 1002,3 hPa 0,0 l/m 7,4 km/h (2 Bft) W-NW 6,8 C 11,0 C 17,4 km/h (3 Bft)
12.04.2013 14:00 12,3 C 70 % 1002,6 hPa 0,0 l/m 6,4 km/h (2 Bft) W 7,0 C 12,0 C 15,4 km/h (3 Bft)
12.04.2013 15:00 12,7 C 69 % 1002,5 hPa 0,0 l/m 5,3 km/h (1 Bft) S 7,1 C 12,5 C 13,0 km/h (3 Bft)
12.04.2013 16:00 13,2 C 69 % 1002,5 hPa 0,0 l/m 4,6 km/h (1 Bft) SW 7,5 C 13,1 C 11,8 km/h (2 Bft)
12.04.2013 17:00 14,1 C 66 % 1002,2 hPa 0,0 l/m 4,7 km/h (1 Bft) S-SW 7,8 C 14,1 C 10,5 km/h (2 Bft)
12.04.2013 18:00 13,6 C 66 % 1001,9 hPa 0,0 l/m 4,9 km/h (1 Bft) S 7,3 C 13,6 C 10,3 km/h (2 Bft)
12.04.2013 19:00 12,8 C 69 % 1002,2 hPa 0,0 l/m 6,1 km/h (2 Bft) S 7,3 C 12,5 C 12,8 km/h (3 Bft)
12.04.2013 20:00 11,6 C 77 % 1002,8 hPa 0,4 l/m 5,5 km/h (2 Bft) S-SW 7,7 C 11,4 C 12,2 km/h (2 Bft)
12.04.2013 21:00 9,5 C 88 % 1003,2 hPa 0,0 l/m 1,6 km/h (1 Bft) S-SW 7,6 C 9,5 C 5,5 km/h (2 Bft)
12.04.2013 22:00 9,2 C 89 % 1003,9 hPa 1,0 l/m 2,5 km/h (1 Bft) SW 7,5 C 9,2 C 6,7 km/h (2 Bft)
12.04.2013 23:00 8,6 C 90 % 1004,0 hPa 0,0 l/m 3,8 km/h (1 Bft) SW 7,1 C 8,6 C 8,6 km/h (2 Bft)
13.04.2013 00:00 8,6 C 91 % 1004,3 hPa 0,0 l/m 3,9 km/h (1 Bft) S-SW 7,3 C 8,6 C 8,8 km/h (2 Bft)
13.04.2013 01:00 8,7 C 89 % 1004,7 hPa 0,0 l/m 4,6 km/h (1 Bft) S-SW 7,0 C 8,7 C 11,4 km/h (2 Bft)
13.04.2013 02:00 7,7 C 90 % 1005,1 hPa 0,0 l/m 1,4 km/h (1 Bft) S-SW 6,2 C 7,7 C 4,9 km/h (1 Bft)
13.04.2013 03:00 7,7 C 91 % 1005,7 hPa 0,0 l/m 2,1 km/h (1 Bft) S-SW 6,3 C 7,7 C 5,8 km/h (2 Bft)
13.04.2013 04:00 7,8 C 89 % 1006,0 hPa 0,0 l/m 4,2 km/h (1 Bft) S-SW 6,0 C 7,8 C 9,8 km/h (2 Bft)
13.04.2013 05:00 8,2 C 88 % 1006,5 hPa 0,2 l/m 5,3 km/h (1 Bft) SW 6,3 C 8,1 C 12,9 km/h (3 Bft)
13.04.2013 06:00 8,2 C 89 % 1007,2 hPa 0,4 l/m 4,6 km/h (1 Bft) S-SW 6,5 C 8,1 C 11,5 km/h (2 Bft)
13.04.2013 07:00 8,2 C 90 % 1008,2 hPa 0,0 l/m 5,4 km/h (1 Bft) S-SW 6,6 C 8,2 C 14,1 km/h (3 Bft)
13.04.2013 08:00 8,5 C 88 % 1009,4 hPa 0,0 l/m 8,1 km/h (2 Bft) W 6,6 C 7,2 C 18,8 km/h (3 Bft)
13.04.2013 09:00 8,7 C 85 % 1010,6 hPa 0,0 l/m 9,2 km/h (2 Bft) W-SW 6,4 C 6,8 C 22,8 km/h (4 Bft)
13.04.2013 10:00 8,6 C 84 % 1011,9 hPa 0,0 l/m 8,9 km/h (2 Bft) W 6,0 C 6,7 C 20,4 km/h (4 Bft)
13.04.2013 11:00 9,6 C 80 % 1013,1 hPa 0,0 l/m 8,9 km/h (2 Bft) W 6,3 C 7,9 C 21,7 km/h (4 Bft)
13.04.2013 12:00 10,7 C 76 % 1014,1 hPa 0,0 l/m 7,6 km/h (2 Bft) W 6,7 C 9,8 C 17,7 km/h (3 Bft)
13.04.2013 13:00 12,1 C 70 % 1015,0 hPa 0,0 l/m 8,2 km/h (2 Bft) W 6,8 C 10,9 C 19,7 km/h (3 Bft)
13.04.2013 14:00 12,4 C 67 % 1015,9 hPa 0,0 l/m 9,1 km/h (2 Bft) NW 6,4 C 10,7 C 19,8 km/h (4 Bft)
13.04.2013 15:00 12,0 C 68 % 1016,7 hPa 0,0 l/m 10,3 km/h (2 Bft) NW 6,2 C 9,8 C 24,8 km/h (4 Bft)
13.04.2013 16:00 12,0 C 67 % 1017,3 hPa 0,0 l/m 10,8 km/h (2 Bft) W-NW 6,2 C 9,5 C 22,9 km/h (4 Bft)
13.04.2013 17:00 11,1 C 70 % 1018,2 hPa 0,0 l/m 9,6 km/h (2 Bft) W-NW 6,0 C 9,1 C 20,8 km/h (4 Bft)
13.04.2013 18:00 10,7 C 72 % 1019,1 hPa 0,0 l/m 7,2 km/h (2 Bft) NW 5,8 C 9,9 C 14,4 km/h (3 Bft)
13.04.2013 19:00 9,9 C 76 % 1019,8 hPa 0,0 l/m 3,2 km/h (1 Bft) NW 5,8 C 9,9 C 6,3 km/h (2 Bft)
13.04.2013 20:00 7,6 C 82 % 1020,7 hPa 0,0 l/m 0,0 km/h (0 Bft) N 4,8 C 7,6 C 0,1 km/h (0 Bft)
13.04.2013 21:00 5,4 C 90 % 1021,3 hPa 0,0 l/m 0,0 km/h (0 Bft) N 3,9 C 5,4 C 0,1 km/h (0 Bft)
13.04.2013 22:00 4,3 C 92 % 1021,9 hPa 0,0 l/m 0,2 km/h (0 Bft) N 3,2 C 4,3 C 1,2 km/h (1 Bft)
13.04.2013 23:00 4,0 C 94 % 1022,3 hPa 0,0 l/m 0,0 km/h (0 Bft) N 3,1 C 4,0 C 0,8 km/h (0 Bft)
14.04.2013 00:00 4,2 C 93 % 1022,7 hPa 0,0 l/m 0,4 km/h (0 Bft) O-SO 3,2 C 4,2 C 1,9 km/h (1 Bft)
14.04.2013 01:00 4,1 C 93 % 1023,0 hPa 0,0 l/m 0,0 km/h (0 Bft) N 3,1 C 4,1 C 0,0 km/h (0 Bft)
14.04.2013 02:00 3,8 C 94 % 1023,0 hPa 0,0 l/m 0,7 km/h (0 Bft) SO 2,8 C 3,8 C 2,7 km/h (1 Bft)
14.04.2013 03:00 4,1 C 94 % 1023,0 hPa 0,0 l/m 1,3 km/h (1 Bft) O-SO 3,2 C 4,1 C 3,5 km/h (1 Bft)
14.04.2013 04:00 5,1 C 93 % 1023,0 hPa 0,0 l/m 2,4 km/h (1 Bft) SO 4,0 C 5,1 C 5,9 km/h (2 Bft)
14.04.2013 05:00 5,7 C 91 % 1023,1 hPa 0,0 l/m 0,8 km/h (0 Bft) O-SO 4,4 C 5,7 C 3,2 km/h (1 Bft)
14.04.2013 06:00 5,9 C 90 % 1023,1 hPa 0,0 l/m 0,8 km/h (0 Bft) SO 4,4 C 5,9 C 2,8 km/h (1 Bft)
14.04.2013 07:00 6,4 C 90 % 1023,6 hPa 0,0 l/m 1,3 km/h (1 Bft) O 4,9 C 6,4 C 4,7 km/h (1 Bft)
14.04.2013 08:00 8,2 C 86 % 1023,7 hPa 0,0 l/m 0,9 km/h (0 Bft) SO 5,9 C 8,2 C 3,6 km/h (1 Bft)
14.04.2013 09:00 10,5 C 78 % 1024,2 hPa 0,0 l/m 2,2 km/h (1 Bft) S 6,9 C 10,5 C 5,3 km/h (1 Bft)
14.04.2013 10:00 11,9 C 76 % 1024,6 hPa 0,0 l/m 6,6 km/h (2 Bft) S-SW 7,8 C 11,4 C 13,0 km/h (3 Bft)
14.04.2013 11:00 11,5 C 86 % 1024,9 hPa 0,0 l/m 4,1 km/h (1 Bft) S-SW 9,2 C 11,3 C 9,0 km/h (2 Bft)
14.04.2013 12:00 14,1 C 77 % 1024,8 hPa 0,0 l/m 5,7 km/h (2 Bft) S-SO 10,2 C 14,0 C 12,4 km/h (2 Bft)
14.04.2013 13:00 15,5 C 72 % 1024,3 hPa 0,0 l/m 7,2 km/h (2 Bft) SW 10,5 C 15,0 C 14,5 km/h (3 Bft)
14.04.2013 14:00 17,1 C 67 % 1024,0 hPa 0,0 l/m 7,9 km/h (2 Bft) SW 10,8 C 16,3 C 16,4 km/h (3 Bft)
14.04.2013 15:00 17,3 C 66 % 1024,1 hPa 0,0 l/m 6,7 km/h (2 Bft) S-SW 10,9 C 17,0 C 14,8 km/h (3 Bft)
14.04.2013 16:00 18,3 C 63 % 1023,7 hPa 0,0 l/m 5,4 km/h (1 Bft) SW 11,1 C 18,3 C 11,4 km/h (2 Bft)
14.04.2013 17:00 18,7 C 62 % 1023,4 hPa 0,0 l/m 4,9 km/h (1 Bft) S-SW 11,3 C 18,7 C 10,6 km/h (2 Bft)
14.04.2013 18:00 18,1 C 64 % 1023,2 hPa 0,0 l/m 3,9 km/h (1 Bft) S 11,2 C 18,1 C 7,6 km/h (2 Bft)
14.04.2013 19:00 17,2 C 67 % 1023,1 hPa 0,0 l/m 1,2 km/h (1 Bft) S-SO 11,1 C 17,2 C 3,7 km/h (1 Bft)
14.04.2013 20:00 15,6 C 74 % 1023,0 hPa 0,0 l/m 0,2 km/h (0 Bft) N 11,0 C 15,6 C 1,2 km/h (1 Bft)
14.04.2013 21:00 13,9 C 80 % 1022,7 hPa 0,0 l/m 0,6 km/h (0 Bft) O-SO 10,4 C 13,9 C 2,5 km/h (1 Bft)
14.04.2013 22:00 13,7 C 81 % 1022,3 hPa 0,0 l/m 3,5 km/h (1 Bft) S-SO 10,5 C 13,7 C 8,4 km/h (2 Bft)
14.04.2013 23:00 13,8 C 80 % 1021,9 hPa 0,0 l/m 4,8 km/h (1 Bft) S-SO 10,4 C 13,8 C 9,9 km/h (2 Bft)
Min-Datum _ 08.04.13 08.04.13 12.04.13 - 08.04.13 - 08.04.13 08.04.13 08.04.13
_ Min-Zeit 02:20 16:20 03:55 - 00:00 - 01:10 02:20 00:00
Minimum _ -4,0 C 48 % 997,8 hPa - 0,0 km/h (0 Bft) - -5,2 C -4,0 C 0,0 km/h (0 Bft)
Max-Datum _ 14.04.13 11.04.13 14.04.13 10.04.13 13.04.13 - 11.04.13 14.04.13 13.04.13
_ Max-Zeit 17:30 22:45 11:50 18:55 15:50 - 15:25 17:30 15:30
Maximum _ 18,9 C 98 % 1025,0 hPa 2,8 l/m 15,6 km/h
NW (3 Bft)
- 11,7 C 18,9 C 33,8 km/h
W-NW (5 Bft)
Durchschnitt _ 7,2 C 84 % 1008,7 hPa #18,0 l/m 4,4 km/h (1 Bft) O 4,4 C 6,7 C 9,4 km/h (2 Bft)